Time;durP1;ratioP1;P1;durP2;ratioP2;P2;SDS_P1;SDS_P2;PMS_P1;PMS_P2;Temp;Humidity;BMP_temperature;BMP_pressure;BME280_temperature;BME280_humidity;BME280_pressure;Samples;Min_cycle;Max_cycle;Signal;HPM_P1;HPM_P2
2022/02/16 00:02:05;;;;;;;;;2.75;2.75;;;;;;;;5042343;28;9852;-77
2022/02/16 00:04:34;;;;;;;;;2.00;2.00;;;;;;;;5035696;28;9899;-77
2022/02/16 00:07:01;;;;;;;;;2.00;2.00;;;;;;;;5040691;28;10141;-77
2022/02/16 00:09:28;;;;;;;;;3.00;3.00;;;;;;;;5047348;28;9866;-76
2022/02/16 00:11:56;;;;;;;;;1.75;1.75;;;;;;;;5040192;28;9891;-78
2022/02/16 00:14:23;;;;;;;;;2.00;2.00;;;;;;;;5051922;28;9859;-78
2022/02/16 00:16:50;;;;;;;;;4.50;2.00;;;;;;;;5042227;28;9868;-76
2022/02/16 00:19:18;;;;;;;;;2.00;2.00;;;;;;;;5057787;28;9854;-77
2022/02/16 00:21:47;;;;;;;;;2.25;2.25;;;;;;;;5078229;28;9892;-77
2022/02/16 00:24:14;;;;;;;;;2.75;2.75;;;;;;;;5043562;28;9934;-77
2022/02/16 00:26:41;;;;;;;;;2.75;2.75;;;;;;;;5043591;28;10055;-77
2022/02/16 00:29:11;;;;;;;;;1.00;1.00;;;;;;;;5031593;28;10694;-77
2022/02/16 00:31:38;;;;;;;;;5.00;2.75;;;;;;;;5044572;28;9899;-78
2022/02/16 00:34:06;;;;;;;;;3.25;3.25;;;;;;;;5045643;28;9946;-78
2022/02/16 00:36:33;;;;;;;;;5.25;3.00;;;;;;;;5046196;28;10736;-77
2022/02/16 00:39:02;;;;;;;;;4.50;3.00;;;;;;;;5045370;28;9991;-78
2022/02/16 00:41:30;;;;;;;;;3.75;2.00;;;;;;;;5061107;28;9949;-78
2022/02/16 00:43:57;;;;;;;;;3.00;3.00;;;;;;;;5080617;28;9978;-77
2022/02/16 00:46:24;;;;;;;;;2.75;2.75;;;;;;;;5066856;28;10057;-78
2022/02/16 00:48:52;;;;;;;;;2.00;2.00;;;;;;;;5064463;28;10056;-78
2022/02/16 00:51:19;;;;;;;;;3.00;3.00;;;;;;;;5058491;28;9880;-77
2022/02/16 00:53:46;;;;;;;;;1.00;1.00;;;;;;;;5064234;28;10066;-76
2022/02/16 00:56:15;;;;;;;;;2.50;2.50;;;;;;;;5061770;28;9889;-79
2022/02/16 00:58:42;;;;;;;;;1.25;1.25;;;;;;;;5062092;28;10642;-79
2022/02/16 01:01:10;;;;;;;;;1.00;1.00;;;;;;;;5052373;28;9727;-78
2022/02/16 01:03:38;;;;;;;;;3.25;1.75;;;;;;;;5045980;28;10018;-78
2022/02/16 01:06:05;;;;;;;;;1.00;1.00;;;;;;;;5058292;28;9947;-79
2022/02/16 01:08:33;;;;;;;;;1.00;1.00;;;;;;;;5054894;28;9868;-78
2022/02/16 01:11:00;;;;;;;;;1.00;1.00;;;;;;;;5059341;28;10064;-79
2022/02/16 01:13:29;;;;;;;;;1.00;1.00;;;;;;;;5075698;28;9929;-79
2022/02/16 01:15:56;;;;;;;;;1.00;1.00;;;;;;;;5042382;28;9864;-76
2022/02/16 01:18:24;;;;;;;;;1.00;1.00;;;;;;;;5066076;28;9841;-77
2022/02/16 01:20:51;;;;;;;;;1.00;1.00;;;;;;;;5061881;28;9808;-78
2022/02/16 01:23:18;;;;;;;;;1.00;1.00;;;;;;;;5058764;28;9799;-78
2022/02/16 01:25:46;;;;;;;;;1.00;1.00;;;;;;;;5057835;28;10049;-78
2022/02/16 01:28:13;;;;;;;;;0.75;0.75;;;;;;;;5058019;28;10536;-78
2022/02/16 01:30:42;;;;;;;;;1.00;1.00;;;;;;;;5048108;28;9805;-79
2022/02/16 01:33:10;;;;;;;;;0.00;0.00;;;;;;;;5032589;28;9789;-77
2022/02/16 01:35:37;;;;;;;;;1.75;1.75;;;;;;;;5049396;28;9850;-77
2022/02/16 01:38:05;;;;;;;;;1.00;1.00;;;;;;;;5050493;28;9943;-77
2022/02/16 01:40:32;;;;;;;;;5.00;2.00;;;;;;;;5062984;28;10014;-77
2022/02/16 01:43:01;;;;;;;;;1.00;1.00;;;;;;;;5043580;28;9886;-78
2022/02/16 01:45:29;;;;;;;;;2.00;2.00;;;;;;;;5064659;28;9929;-78
2022/02/16 01:47:59;;;;;;;;;1.00;1.00;;;;;;;;5063926;28;10054;-79
2022/02/16 01:50:26;;;;;;;;;2.00;1.00;;;;;;;;5068289;28;10019;-78
2022/02/16 01:52:54;;;;;;;;;0.75;0.75;;;;;;;;5053697;28;10726;-78
2022/02/16 01:55:21;;;;;;;;;0.00;0.00;;;;;;;;5055418;28;9775;-77
2022/02/16 01:57:49;;;;;;;;;1.00;1.00;;;;;;;;5062629;28;10639;-78
2022/02/16 02:00:18;;;;;;;;;1.00;1.00;;;;;;;;5057388;28;10026;-79
2022/02/16 02:02:45;;;;;;;;;0.25;0.25;;;;;;;;5053194;28;9953;-78
2022/02/16 02:05:14;;;;;;;;;0.25;0.00;;;;;;;;5052126;28;9973;-78
2022/02/16 02:07:41;;;;;;;;;1.00;1.00;;;;;;;;5053594;28;9851;-78
2022/02/16 02:10:09;;;;;;;;;0.00;0.00;;;;;;;;5059555;28;9765;-78
2022/02/16 02:12:44;;;;;;;;;0.75;0.75;;;;;;;;5057648;28;9842;-77
2022/02/16 02:15:12;;;;;;;;;0.00;0.00;;;;;;;;5054458;28;9861;-78
2022/02/16 02:17:40;;;;;;;;;0.00;0.00;;;;;;;;5049846;28;10577;-79
2022/02/16 02:20:19;;;;;;;;;0.00;0.00;;;;;;;;5054195;28;9780;-77
2022/02/16 02:22:47;;;;;;;;;0.00;0.00;;;;;;;;5045238;28;10544;-77
2022/02/16 02:25:14;;;;;;;;;0.00;0.00;;;;;;;;5043458;28;9844;-77
2022/02/16 02:27:42;;;;;;;;;0.00;0.00;;;;;;;;5065514;28;10602;-77
2022/02/16 02:30:10;;;;;;;;;1.00;1.00;;;;;;;;5072816;28;9680;-76
2022/02/16 02:32:40;;;;;;;;;0.25;0.25;;;;;;;;5064449;28;9693;-78
2022/02/16 02:35:11;;;;;;;;;0.50;0.50;;;;;;;;5048091;28;9762;-77
2022/02/16 02:37:38;;;;;;;;;0.00;0.00;;;;;;;;5043082;28;9984;-77
2022/02/16 02:40:07;;;;;;;;;0.00;0.00;;;;;;;;5053817;28;9776;-78
2022/02/16 02:42:37;;;;;;;;;2.00;0.00;;;;;;;;5057201;28;9858;-79
2022/02/16 02:45:06;;;;;;;;;1.00;1.00;;;;;;;;5047478;28;9894;-77
2022/02/16 02:47:34;;;;;;;;;1.00;1.00;;;;;;;;5053254;28;9877;-77
2022/02/16 02:50:01;;;;;;;;;0.00;0.00;;;;;;;;5054395;28;9858;-77
2022/02/16 02:52:31;;;;;;;;;0.50;0.50;;;;;;;;5042434;28;9894;-77
2022/02/16 02:54:58;;;;;;;;;0.00;0.00;;;;;;;;5058996;28;9829;-77
2022/02/16 02:57:25;;;;;;;;;0.00;0.00;;;;;;;;5068600;28;9646;-78
2022/02/16 02:59:53;;;;;;;;;2.50;1.00;;;;;;;;5054963;28;9852;-77
2022/02/16 03:02:20;;;;;;;;;1.00;1.00;;;;;;;;5057282;28;10201;-77
2022/02/16 03:04:47;;;;;;;;;1.00;1.00;;;;;;;;5063169;28;9845;-78
2022/02/16 03:07:14;;;;;;;;;1.25;1.25;;;;;;;;5058796;28;9881;-78
2022/02/16 03:09:43;;;;;;;;;0.00;0.00;;;;;;;;5065144;28;9870;-77
2022/02/16 03:12:11;;;;;;;;;2.50;1.50;;;;;;;;5046591;28;9850;-79
2022/02/16 03:14:38;;;;;;;;;2.00;2.00;;;;;;;;5062919;28;9814;-78
2022/02/16 03:17:06;;;;;;;;;2.00;2.00;;;;;;;;5064035;28;10054;-78
2022/02/16 03:19:33;;;;;;;;;1.00;1.00;;;;;;;;5060060;28;10007;-78
2022/02/16 03:22:00;;;;;;;;;1.00;1.00;;;;;;;;5061961;28;9794;-78
2022/02/16 03:24:27;;;;;;;;;6.00;2.00;;;;;;;;5042611;28;9771;-78
2022/02/16 03:26:56;;;;;;;;;3.50;3.50;;;;;;;;5043967;28;9909;-77
2022/02/16 03:29:24;;;;;;;;;1.75;1.75;;;;;;;;5045810;28;9988;-78
2022/02/16 03:31:51;;;;;;;;;3.00;3.00;;;;;;;;5055126;28;9903;-78
2022/02/16 03:34:18;;;;;;;;;1.50;1.50;;;;;;;;5059253;28;9995;-78
2022/02/16 03:36:45;;;;;;;;;2.00;2.00;;;;;;;;5049756;28;9864;-78
2022/02/16 03:39:13;;;;;;;;;2.50;2.50;;;;;;;;5055861;28;10646;-78
2022/02/16 03:41:40;;;;;;;;;2.00;2.00;;;;;;;;5036725;28;9821;-78
2022/02/16 03:44:09;;;;;;;;;2.00;2.00;;;;;;;;5058363;28;9756;-76
2022/02/16 03:46:36;;;;;;;;;1.00;1.00;;;;;;;;5059451;28;9868;-79
2022/02/16 03:49:04;;;;;;;;;2.00;1.75;;;;;;;;5060101;28;10031;-78
2022/02/16 03:51:33;;;;;;;;;2.50;0.50;;;;;;;;5060539;28;9857;-79
2022/02/16 03:54:00;;;;;;;;;3.00;3.00;;;;;;;;5061470;28;9827;-78
2022/02/16 03:56:27;;;;;;;;;2.25;2.25;;;;;;;;5059382;28;11143;-78
2022/02/16 03:58:55;;;;;;;;;2.75;2.00;;;;;;;;5054977;28;9754;-76
2022/02/16 04:01:23;;;;;;;;;1.00;1.00;;;;;;;;5056900;28;9831;-77
2022/02/16 04:03:50;;;;;;;;;2.00;2.00;;;;;;;;5059092;28;9846;-78
2022/02/16 04:06:18;;;;;;;;;3.75;3.75;;;;;;;;5060566;28;9678;-78
2022/02/16 04:08:45;;;;;;;;;2.00;2.00;;;;;;;;5060888;28;10597;-78
2022/02/16 04:11:13;;;;;;;;;2.00;2.00;;;;;;;;5054948;28;10020;-78
2022/02/16 04:13:41;;;;;;;;;0.25;0.25;;;;;;;;5058191;28;9777;-78
2022/02/16 04:16:08;;;;;;;;;1.00;1.00;;;;;;;;5071038;28;9705;-78
2022/02/16 04:18:37;;;;;;;;;2.00;2.00;;;;;;;;5047618;28;10509;-77
2022/02/16 04:21:04;;;;;;;;;2.50;1.25;;;;;;;;5059946;28;9883;-76
2022/02/16 04:23:32;;;;;;;;;2.50;1.00;;;;;;;;5051979;28;9626;-78
2022/02/16 04:25:59;;;;;;;;;1.25;1.25;;;;;;;;5062461;28;9724;-78
2022/02/16 04:28:27;;;;;;;;;0.00;0.00;;;;;;;;5075998;28;9557;-74
2022/02/16 04:30:54;;;;;;;;;1.00;1.00;;;;;;;;5059852;28;9527;-78
2022/02/16 04:33:21;;;;;;;;;0.00;0.00;;;;;;;;5061905;28;9573;-75
2022/02/16 04:35:50;;;;;;;;;0.00;0.00;;;;;;;;5061431;28;9573;-76
2022/02/16 04:38:17;;;;;;;;;0.25;0.25;;;;;;;;5062217;28;9505;-75
2022/02/16 04:40:44;;;;;;;;;0.00;0.00;;;;;;;;5060649;28;9581;-77
2022/02/16 04:43:12;;;;;;;;;0.00;0.00;;;;;;;;5066297;28;9499;-77
2022/02/16 04:45:40;;;;;;;;;0.00;0.00;;;;;;;;5057917;28;9468;-77
2022/02/16 04:48:07;;;;;;;;;0.00;0.00;;;;;;;;5067638;28;9537;-77
2022/02/16 04:50:35;;;;;;;;;2.00;0.00;;;;;;;;5071774;28;10332;-76
2022/02/16 04:53:03;;;;;;;;;0.50;0.50;;;;;;;;5074418;28;10443;-76
2022/02/16 04:55:30;;;;;;;;;0.00;0.00;;;;;;;;5062710;28;9656;-77
2022/02/16 04:57:58;;;;;;;;;0.00;0.00;;;;;;;;5059980;28;10468;-76
2022/02/16 05:00:25;;;;;;;;;0.00;0.00;;;;;;;;5061604;28;10250;-77
2022/02/16 05:02:53;;;;;;;;;0.00;0.00;;;;;;;;5055129;28;10241;-77
2022/02/16 05:05:20;;;;;;;;;0.00;0.00;;;;;;;;5057495;28;9562;-76
2022/02/16 05:07:47;;;;;;;;;0.00;0.00;;;;;;;;5074781;28;9509;-76
2022/02/16 05:10:16;;;;;;;;;0.00;0.00;;;;;;;;5046200;28;9382;-77
2022/02/16 05:12:43;;;;;;;;;0.00;0.00;;;;;;;;5059274;28;9609;-77
2022/02/16 05:15:11;;;;;;;;;0.75;0.75;;;;;;;;5061050;28;9434;-76
2022/02/16 05:17:38;;;;;;;;;0.00;0.00;;;;;;;;5043738;28;9399;-76
2022/02/16 05:20:07;;;;;;;;;0.00;0.00;;;;;;;;5049512;28;9400;-77
2022/02/16 05:22:34;;;;;;;;;0.00;0.00;;;;;;;;5059518;28;9472;-76
2022/02/16 05:25:01;;;;;;;;;0.00;0.00;;;;;;;;5072258;28;9337;-76
2022/02/16 05:27:30;;;;;;;;;0.00;0.00;;;;;;;;5034026;28;9288;-77
2022/02/16 05:29:57;;;;;;;;;0.00;0.00;;;;;;;;5052234;28;9320;-76
2022/02/16 05:32:25;;;;;;;;;0.00;0.00;;;;;;;;5050412;28;9345;-76
2022/02/16 05:34:52;;;;;;;;;0.00;0.00;;;;;;;;5043907;28;9247;-76
2022/02/16 05:37:19;;;;;;;;;0.00;0.00;;;;;;;;5052439;28;9168;-76
2022/02/16 05:39:46;;;;;;;;;0.00;0.00;;;;;;;;5050976;28;9341;-78
2022/02/16 05:42:14;;;;;;;;;0.00;0.00;;;;;;;;5053964;28;9085;-77
2022/02/16 05:44:42;;;;;;;;;0.00;0.00;;;;;;;;5050840;28;9209;-77
2022/02/16 05:47:09;;;;;;;;;0.00;0.00;;;;;;;;5055949;28;9285;-77
2022/02/16 05:49:37;;;;;;;;;0.00;0.00;;;;;;;;5062561;28;9189;-78
2022/02/16 05:52:05;;;;;;;;;0.00;0.00;;;;;;;;5062795;28;9224;-77
2022/02/16 05:54:32;;;;;;;;;0.00;0.00;;;;;;;;5047547;28;9130;-77
2022/02/16 05:56:59;;;;;;;;;0.00;0.00;;;;;;;;5047081;28;9090;-77
2022/02/16 05:59:27;;;;;;;;;0.00;0.00;;;;;;;;5054720;28;9959;-77
2022/02/16 06:01:57;;;;;;;;;0.00;0.00;;;;;;;;5052433;28;9304;-77
2022/02/16 06:04:24;;;;;;;;;0.00;0.00;;;;;;;;5052258;28;9355;-75
2022/02/16 06:06:52;;;;;;;;;0.00;0.00;;;;;;;;5041409;28;9184;-76
2022/02/16 06:09:19;;;;;;;;;0.00;0.00;;;;;;;;5057017;28;9996;-77
2022/02/16 06:11:46;;;;;;;;;0.00;0.00;;;;;;;;5048996;28;9130;-78
2022/02/16 06:14:13;;;;;;;;;0.00;0.00;;;;;;;;5064051;28;9241;-79
2022/02/16 06:16:40;;;;;;;;;0.00;0.00;;;;;;;;5058961;28;9092;-78
2022/02/16 06:19:09;;;;;;;;;0.00;0.00;;;;;;;;5064922;28;9104;-77
2022/02/16 06:21:37;;;;;;;;;0.00;0.00;;;;;;;;5063856;28;9178;-78
2022/02/16 06:24:05;;;;;;;;;0.00;0.00;;;;;;;;5062842;28;9177;-78
2022/02/16 06:26:32;;;;;;;;;0.00;0.00;;;;;;;;5055619;28;9026;-77
2022/02/16 06:29:00;;;;;;;;;0.00;0.00;;;;;;;;5060505;28;9102;-75
2022/02/16 06:31:27;;;;;;;;;0.00;0.00;;;;;;;;5056976;28;9146;-78
2022/02/16 06:33:54;;;;;;;;;0.00;0.00;;;;;;;;5058499;28;9202;-77
2022/02/16 06:36:23;;;;;;;;;0.00;0.00;;;;;;;;5051289;28;8948;-77
2022/02/16 06:38:51;;;;;;;;;0.00;0.00;;;;;;;;5061272;28;9038;-78
2022/02/16 06:41:19;;;;;;;;;0.00;0.00;;;;;;;;5053776;28;9010;-75
2022/02/16 06:43:47;;;;;;;;;0.00;0.00;;;;;;;;5042641;28;9010;-77
2022/02/16 06:46:14;;;;;;;;;0.00;0.00;;;;;;;;5057035;28;8933;-77
2022/02/16 06:48:43;;;;;;;;;0.00;0.00;;;;;;;;5064383;28;9089;-78
2022/02/16 06:51:10;;;;;;;;;0.00;0.00;;;;;;;;5062636;28;9043;-78
2022/02/16 06:53:39;;;;;;;;;0.00;0.00;;;;;;;;5067092;28;9039;-77
2022/02/16 06:56:06;;;;;;;;;0.00;0.00;;;;;;;;5053785;28;9007;-78
2022/02/16 06:58:34;;;;;;;;;0.00;0.00;;;;;;;;5063237;28;9033;-77
2022/02/16 07:01:01;;;;;;;;;0.00;0.00;;;;;;;;5060572;28;8871;-77
2022/02/16 07:03:28;;;;;;;;;0.00;0.00;;;;;;;;5053213;28;8962;-77
2022/02/16 07:05:57;;;;;;;;;0.00;0.00;;;;;;;;5062276;28;8962;-77
2022/02/16 07:08:25;;;;;;;;;0.00;0.00;;;;;;;;5056330;28;9795;-77
2022/02/16 07:10:53;;;;;;;;;0.00;0.00;;;;;;;;5062925;28;8992;-77
2022/02/16 07:13:21;;;;;;;;;0.33;0.33;;;;;;;;5060722;28;8890;-78
2022/02/16 07:15:49;;;;;;;;;0.00;0.00;;;;;;;;5060317;28;8995;-86
2022/02/16 07:18:19;;;;;;;;;2.00;0.00;;;;;;;;5058285;28;8874;-79
2022/02/16 07:20:46;;;;;;;;;0.67;0.67;;;;;;;;5060645;28;8890;-78
2022/02/16 07:23:14;;;;;;;;;0.00;0.00;;;;;;;;5056735;28;8960;-76
2022/02/16 07:25:41;;;;;;;;;0.00;0.00;;;;;;;;5061344;28;9115;-77
2022/02/16 07:28:10;;;;;;;;;0.25;0.25;;;;;;;;5068754;28;8876;-81
2022/02/16 07:30:38;;;;;;;;;0.00;0.00;;;;;;;;5071036;28;8808;-87
2022/02/16 07:33:05;;;;;;;;;0.00;0.00;;;;;;;;5049738;28;8864;-81
2022/02/16 07:35:33;;;;;;;;;0.33;0.33;;;;;;;;5047068;28;8962;-86
2022/02/16 07:38:00;;;;;;;;;0.00;0.00;;;;;;;;5072276;28;8995;-83
2022/02/16 07:40:28;;;;;;;;;0.00;0.00;;;;;;;;5050152;28;8849;-86
2022/02/16 07:42:55;;;;;;;;;0.00;0.00;;;;;;;;5058090;28;8862;-79
2022/02/16 07:45:24;;;;;;;;;0.00;0.00;;;;;;;;5059581;28;8974;-81
2022/02/16 07:47:51;;;;;;;;;1.00;1.00;;;;;;;;5062702;28;8864;-77
2022/02/16 07:50:18;;;;;;;;;1.00;1.00;;;;;;;;5062845;28;8880;-80
2022/02/16 07:52:46;;;;;;;;;1.00;1.00;;;;;;;;5071765;28;8878;-82
2022/02/16 07:55:14;;;;;;;;;1.00;1.00;;;;;;;;5061891;28;8895;-80
2022/02/16 07:57:41;;;;;;;;;1.50;0.00;;;;;;;;5057497;28;8857;-82
2022/02/16 08:00:10;;;;;;;;;0.00;0.00;;;;;;;;5055681;28;9012;-80
2022/02/16 08:02:38;;;;;;;;;0.00;0.00;;;;;;;;5060451;28;8880;-82
2022/02/16 08:05:06;;;;;;;;;1.00;1.00;;;;;;;;5058657;28;8914;-80
2022/02/16 08:07:33;;;;;;;;;1.75;1.00;;;;;;;;5061044;28;8876;-79
2022/02/16 08:10:01;;;;;;;;;0.00;0.00;;;;;;;;5058470;28;9702;-81
2022/02/16 08:12:28;;;;;;;;;0.00;0.00;;;;;;;;5059252;28;8852;-85
2022/02/16 08:14:56;;;;;;;;;0.00;0.00;;;;;;;;5063675;28;8852;-79
2022/02/16 08:17:23;;;;;;;;;0.25;0.25;;;;;;;;5059338;28;8904;-81
2022/02/16 08:19:52;;;;;;;;;0.00;0.00;;;;;;;;5054940;28;8890;-82
2022/02/16 08:22:19;;;;;;;;;0.00;0.00;;;;;;;;5065178;28;8986;-81
2022/02/16 08:24:47;;;;;;;;;0.00;0.00;;;;;;;;5065711;28;8880;-82
2022/02/16 08:27:14;;;;;;;;;0.00;0.00;;;;;;;;5044888;28;8968;-84
2022/02/16 08:29:41;;;;;;;;;0.00;0.00;;;;;;;;5065063;28;8856;-85
2022/02/16 08:32:09;;;;;;;;;0.00;0.00;;;;;;;;5058287;28;8811;-79
2022/02/16 08:34:36;;;;;;;;;0.25;0.25;;;;;;;;5062770;28;8859;-84
2022/02/16 08:37:05;;;;;;;;;0.00;0.00;;;;;;;;5048139;28;8880;-82
2022/02/16 08:39:32;;;;;;;;;1.00;1.00;;;;;;;;5062049;28;8945;-83
2022/02/16 08:42:00;;;;;;;;;0.00;0.00;;;;;;;;5059909;28;8849;-82
2022/02/16 08:44:27;;;;;;;;;0.00;0.00;;;;;;;;5057375;28;8892;-80
2022/02/16 08:46:55;;;;;;;;;0.00;0.00;;;;;;;;5065490;28;9021;-82
2022/02/16 08:49:22;;;;;;;;;0.00;0.00;;;;;;;;5066490;28;8887;-81
2022/02/16 08:51:50;;;;;;;;;0.00;0.00;;;;;;;;5066492;28;8872;-80
2022/02/16 08:54:18;;;;;;;;;0.00;0.00;;;;;;;;5067181;28;8980;-81
2022/02/16 08:56:46;;;;;;;;;0.00;0.00;;;;;;;;5062481;28;9637;-84
2022/02/16 08:59:13;;;;;;;;;0.00;0.00;;;;;;;;5063815;28;8895;-81
2022/02/16 09:01:40;;;;;;;;;0.00;0.00;;;;;;;;5063951;28;8843;-83
2022/02/16 09:04:08;;;;;;;;;0.00;0.00;;;;;;;;5066053;28;8852;-82
2022/02/16 09:06:36;;;;;;;;;0.50;0.50;;;;;;;;5065817;28;8886;-83
2022/02/16 09:09:05;;;;;;;;;0.00;0.00;;;;;;;;5066598;28;8860;-83
2022/02/16 09:11:33;;;;;;;;;0.00;0.00;;;;;;;;5061949;28;8894;-81
2022/02/16 09:14:03;;;;;;;;;0.00;0.00;;;;;;;;5060012;28;8990;-81
2022/02/16 09:16:30;;;;;;;;;0.50;0.25;;;;;;;;5061163;28;8840;-80
2022/02/16 09:18:58;;;;;;;;;0.00;0.00;;;;;;;;5051651;28;8900;-81
2022/02/16 09:21:25;;;;;;;;;0.00;0.00;;;;;;;;5063572;28;8982;-81
2022/02/16 09:23:54;;;;;;;;;0.00;0.00;;;;;;;;5061750;28;8914;-83
2022/02/16 09:26:21;;;;;;;;;0.00;0.00;;;;;;;;5066018;28;8880;-81
2022/02/16 09:28:50;;;;;;;;;0.00;0.00;;;;;;;;5063131;28;8936;-80
2022/02/16 09:31:18;;;;;;;;;2.00;0.75;;;;;;;;5056353;28;8856;-79
2022/02/16 09:33:45;;;;;;;;;0.25;0.25;;;;;;;;5058270;28;8845;-79
2022/02/16 09:36:12;;;;;;;;;1.00;1.00;;;;;;;;5035714;28;9013;-82
2022/02/16 09:38:40;;;;;;;;;0.00;0.00;;;;;;;;5043321;28;8893;-76
2022/02/16 09:41:09;;;;;;;;;0.25;0.25;;;;;;;;5062198;28;8856;-78
2022/02/16 09:43:37;;;;;;;;;0.50;0.50;;;;;;;;5060827;28;8886;-83
2022/02/16 09:46:06;;;;;;;;;1.00;1.00;;;;;;;;5063348;28;8876;-80
2022/02/16 09:48:36;;;;;;;;;1.00;1.00;;;;;;;;5065750;28;9687;-78
2022/02/16 09:51:04;;;;;;;;;1.00;1.00;;;;;;;;5063452;28;9630;-81
2022/02/16 09:53:32;;;;;;;;;1.25;1.25;;;;;;;;5056393;28;8898;-83
2022/02/16 09:55:59;;;;;;;;;9.00;8.75;;;;;;;;5061813;28;8895;-80
2022/02/16 09:58:26;;;;;;;;;2.00;2.00;;;;;;;;5061029;28;9672;-85
2022/02/16 10:01:07;;;;;;;;;1.75;1.75;;;;;;;;5065837;28;8909;-81
2022/02/16 10:03:36;;;;;;;;;1.00;1.00;;;;;;;;5064915;28;9620;-88
2022/02/16 10:06:03;;;;;;;;;2.50;1.00;;;;;;;;5066167;28;9710;-88
2022/02/16 10:08:42;;;;;;;;;1.00;1.00;;;;;;;;5058005;28;8922;-86
2022/02/16 10:11:09;;;;;;;;;1.00;1.00;;;;;;;;5035846;28;8887;-84
2022/02/16 10:13:37;;;;;;;;;0.50;0.50;;;;;;;;5057583;28;8904;-80
2022/02/16 10:16:05;;;;;;;;;0.00;0.00;;;;;;;;5057346;28;8864;-80
2022/02/16 10:18:34;;;;;;;;;1.25;1.00;;;;;;;;5040165;28;9031;-78
2022/02/16 10:21:10;;;;;;;;;0.00;0.00;;;;;;;;5061850;28;8965;-81
2022/02/16 10:23:42;;;;;;;;;0.00;0.00;;;;;;;;5064649;28;8848;-82
2022/02/16 10:26:10;;;;;;;;;0.00;0.00;;;;;;;;5058359;28;8853;-77
2022/02/16 10:28:42;;;;;;;;;0.75;0.75;;;;;;;;5059446;28;8876;-79
2022/02/16 10:31:10;;;;;;;;;0.00;0.00;;;;;;;;5063074;28;8934;-80
2022/02/16 10:33:42;;;;;;;;;0.00;0.00;;;;;;;;5058445;28;8858;-83
2022/02/16 10:36:12;;;;;;;;;0.00;0.00;;;;;;;;5055344;28;8860;-80
2022/02/16 10:38:54;;;;;;;;;0.00;0.00;;;;;;;;5063735;28;8904;-78
2022/02/16 10:41:22;;;;;;;;;0.00;0.00;;;;;;;;5057796;28;8872;-80
2022/02/16 10:43:50;;;;;;;;;0.50;0.50;;;;;;;;5064358;28;8879;-80
2022/02/16 10:46:20;;;;;;;;;0.00;0.00;;;;;;;;5060519;28;9588;-82
2022/02/16 10:49:04;;;;;;;;;0.00;0.00;;;;;;;;5029809;28;8880;-75
2022/02/16 10:51:33;;;;;;;;;1.00;1.00;;;;;;;;5061574;28;8902;-81
2022/02/16 10:54:12;;;;;;;;;1.50;0.00;;;;;;;;5044931;28;8979;-79
2022/02/16 10:56:40;;;;;;;;;1.00;1.00;;;;;;;;5060521;28;8821;-78
2022/02/16 10:59:07;;;;;;;;;2.25;0.25;;;;;;;;5060874;28;8978;-78
2022/02/16 11:01:36;;;;;;;;;0.75;0.75;;;;;;;;5058474;28;8801;-82
2022/02/16 11:04:07;;;;;;;;;0.00;0.00;;;;;;;;5058874;28;8894;-79
2022/02/16 11:06:38;;;;;;;;;0.50;0.50;;;;;;;;5061235;28;8931;-80
2022/02/16 11:09:06;;;;;;;;;0.00;0.00;;;;;;;;5059093;28;9611;-80
2022/02/16 11:11:41;;;;;;;;;1.00;1.00;;;;;;;;5055764;28;8863;-76
2022/02/16 11:14:09;;;;;;;;;0.00;0.00;;;;;;;;5064019;28;8848;-76
2022/02/16 11:16:38;;;;;;;;;0.00;0.00;;;;;;;;5053765;28;8864;-78
2022/02/16 11:19:22;;;;;;;;;0.00;0.00;;;;;;;;5062383;28;8946;-78
2022/02/16 11:22:01;;;;;;;;;2.00;0.75;;;;;;;;5060902;28;8878;-81
2022/02/16 11:24:30;;;;;;;;;0.75;0.75;;;;;;;;5061988;28;8868;-78
2022/02/16 11:26:58;;;;;;;;;0.00;0.00;;;;;;;;5063407;28;8848;-79
2022/02/16 11:29:44;;;;;;;;;0.00;0.00;;;;;;;;5063299;28;8995;-78
2022/02/16 11:32:22;;;;;;;;;0.00;0.00;;;;;;;;5054143;28;8851;-77
2022/02/16 11:35:19;;;;;;;;;0.00;0.00;;;;;;;;5044848;28;8858;-78
2022/02/16 11:37:50;;;;;;;;;0.00;0.00;;;;;;;;5054464;28;8896;-78
2022/02/16 11:40:20;;;;;;;;;0.00;0.00;;;;;;;;5054742;28;8927;-75
2022/02/16 11:42:56;;;;;;;;;0.00;0.00;;;;;;;;5056946;28;8848;-75
2022/02/16 11:45:50;;;;;;;;;0.00;0.00;;;;;;;;5062422;28;8882;-79
2022/02/16 11:48:43;;;;;;;;;0.00;0.00;;;;;;;;5064544;28;8850;-80
2022/02/16 11:51:33;;;;;;;;;0.00;0.00;;;;;;;;5070114;28;8872;-83
2022/02/16 11:54:34;;;;;;;;;2.00;0.00;;;;;;;;5075795;28;8952;-87
2022/02/16 11:57:42;;;;;;;;;0.00;0.00;;;;;;;;5068392;28;9709;-79
2022/02/16 12:00:23;;;;;;;;;0.00;0.00;;;;;;;;5065283;28;8869;-82
2022/02/16 12:03:09;;;;;;;;;0.00;0.00;;;;;;;;5062386;28;8868;-77
2022/02/16 12:05:47;;;;;;;;;0.00;0.00;;;;;;;;5064183;28;8930;-79
2022/02/16 12:08:16;;;;;;;;;0.00;0.00;;;;;;;;5063123;28;8954;-78
2022/02/16 12:10:45;;;;;;;;;0.00;0.00;;;;;;;;5064717;28;8971;-87
2022/02/16 12:13:14;;;;;;;;;0.00;0.00;;;;;;;;5067403;28;9462;-87
2022/02/16 12:15:42;;;;;;;;;0.00;0.00;;;;;;;;5067265;28;8856;-82
2022/02/16 12:18:14;;;;;;;;;0.00;0.00;;;;;;;;5066762;28;8853;-81
2022/02/16 12:20:41;;;;;;;;;0.00;0.00;;;;;;;;5064859;28;8853;-81
2022/02/16 12:23:09;;;;;;;;;0.00;0.00;;;;;;;;5064518;28;9646;-80
2022/02/16 12:25:36;;;;;;;;;0.00;0.00;;;;;;;;5052780;28;8902;-80
2022/02/16 12:28:05;;;;;;;;;0.50;0.00;;;;;;;;5064128;28;8867;-78
2022/02/16 12:30:36;;;;;;;;;0.00;0.00;;;;;;;;5067850;28;8773;-81
2022/02/16 12:33:04;;;;;;;;;0.00;0.00;;;;;;;;5062133;28;8872;-80
2022/02/16 12:35:35;;;;;;;;;0.00;0.00;;;;;;;;5082010;28;8941;-81
2022/02/16 12:38:02;;;;;;;;;0.00;0.00;;;;;;;;5070505;28;8849;-79
2022/02/16 12:40:29;;;;;;;;;0.00;0.00;;;;;;;;5067169;28;8909;-80
2022/02/16 12:42:57;;;;;;;;;0.00;0.00;;;;;;;;5077778;28;8866;-79
2022/02/16 12:45:27;;;;;;;;;0.50;0.00;;;;;;;;5058111;28;8835;-81
2022/02/16 12:47:58;;;;;;;;;0.50;0.00;;;;;;;;5069022;28;8855;-80
2022/02/16 12:50:28;;;;;;;;;0.00;0.00;;;;;;;;5064651;28;8877;-80
2022/02/16 12:52:58;;;;;;;;;0.00;0.00;;;;;;;;5045138;28;8864;-82
2022/02/16 12:55:26;;;;;;;;;0.00;0.00;;;;;;;;5069809;28;8994;-85
2022/02/16 12:57:54;;;;;;;;;0.00;0.00;;;;;;;;5046573;28;8864;-77
2022/02/16 13:03:10;;;;;;;;;0.00;0.00;;;;;;;;5058762;28;8814;-78
2022/02/16 13:05:39;;;;;;;;;0.00;0.00;;;;;;;;5058696;28;8860;-84
2022/02/16 13:08:08;;;;;;;;;0.25;0.25;;;;;;;;5063515;28;8857;-80
2022/02/16 13:10:37;;;;;;;;;0.75;0.00;;;;;;;;5062210;28;8882;-81
2022/02/16 13:13:16;;;;;;;;;0.00;0.00;;;;;;;;5066542;28;9610;-86
2022/02/16 13:15:45;;;;;;;;;0.00;0.00;;;;;;;;5062781;28;9672;-79
2022/02/16 13:18:14;;;;;;;;;0.00;0.00;;;;;;;;5060679;28;8864;-80
2022/02/16 13:20:44;;;;;;;;;0.00;0.00;;;;;;;;5065517;28;8874;-83
2022/02/16 13:23:17;;;;;;;;;0.00;0.00;;;;;;;;5062939;28;8943;-79
2022/02/16 13:25:48;;;;;;;;;0.00;0.00;;;;;;;;5046308;28;8884;-86
2022/02/16 13:28:28;;;;;;;;;0.00;0.00;;;;;;;;5060810;28;8874;-80
2022/02/16 13:30:57;;;;;;;;;0.00;0.00;;;;;;;;5073501;28;8834;-81
2022/02/16 13:33:28;;;;;;;;;0.00;0.00;;;;;;;;5065377;28;8848;-80
2022/02/16 13:35:58;;;;;;;;;0.50;0.00;;;;;;;;5043545;28;8946;-81
2022/02/16 13:38:27;;;;;;;;;0.00;0.00;;;;;;;;5067831;28;8918;-85
2022/02/16 13:40:57;;;;;;;;;0.00;0.00;;;;;;;;5048521;28;8854;-81
2022/02/16 13:43:26;;;;;;;;;1.00;1.00;;;;;;;;5067670;28;8844;-81
2022/02/16 13:46:01;;;;;;;;;1.00;1.00;;;;;;;;5060563;28;8866;-79
2022/02/16 13:48:31;;;;;;;;;1.00;1.00;;;;;;;;5067310;28;8987;-84
2022/02/16 13:50:58;;;;;;;;;0.00;0.00;;;;;;;;5067773;28;8976;-81
2022/02/16 13:53:31;;;;;;;;;0.00;0.00;;;;;;;;5062517;28;9370;-85
2022/02/16 13:55:59;;;;;;;;;0.25;0.00;;;;;;;;5063134;28;8826;-78
2022/02/16 13:58:28;;;;;;;;;0.25;0.25;;;;;;;;5057088;28;9051;-82
2022/02/16 14:01:06;;;;;;;;;0.00;0.00;;;;;;;;5062523;28;8820;-79
2022/02/16 14:03:37;;;;;;;;;0.00;0.00;;;;;;;;5055692;28;9611;-83
2022/02/16 14:06:05;;;;;;;;;0.00;0.00;;;;;;;;5049304;28;9001;-84
2022/02/16 14:08:32;;;;;;;;;1.50;0.00;;;;;;;;5053313;28;8856;-78
2022/02/16 14:11:01;;;;;;;;;0.00;0.00;;;;;;;;5065623;28;8856;-82
2022/02/16 14:13:28;;;;;;;;;0.00;0.00;;;;;;;;5064985;28;8880;-81
2022/02/16 14:15:55;;;;;;;;;1.50;0.00;;;;;;;;5061113;28;8883;-83
2022/02/16 14:18:23;;;;;;;;;0.00;0.00;;;;;;;;5058520;28;8864;-79
2022/02/16 14:20:52;;;;;;;;;0.00;0.00;;;;;;;;5060457;28;8869;-79
2022/02/16 14:23:19;;;;;;;;;0.00;0.00;;;;;;;;5058179;28;8870;-78
2022/02/16 14:25:46;;;;;;;;;0.00;0.00;;;;;;;;5059360;28;8858;-78
2022/02/16 14:28:14;;;;;;;;;0.00;0.00;;;;;;;;5061742;28;8979;-82
2022/02/16 14:30:41;;;;;;;;;0.00;0.00;;;;;;;;5060905;28;8785;-77
2022/02/16 14:33:08;;;;;;;;;0.00;0.00;;;;;;;;5071752;28;8864;-89
2022/02/16 14:35:36;;;;;;;;;0.00;0.00;;;;;;;;5062843;28;8979;-78
2022/02/16 14:38:05;;;;;;;;;0.00;0.00;;;;;;;;5042083;28;8891;-79
2022/02/16 14:40:32;;;;;;;;;1.50;0.00;;;;;;;;5063294;28;8880;-77
2022/02/16 14:43:00;;;;;;;;;0.00;0.00;;;;;;;;5060781;28;8991;-79
2022/02/16 14:45:27;;;;;;;;;0.00;0.00;;;;;;;;5075115;28;8856;-78
2022/02/16 14:47:55;;;;;;;;;0.00;0.00;;;;;;;;5060694;28;8843;-79
2022/02/16 14:50:22;;;;;;;;;0.00;0.00;;;;;;;;5064539;28;8840;-74
2022/02/16 14:52:52;;;;;;;;;0.00;0.00;;;;;;;;5062509;28;8896;-79
2022/02/16 14:55:23;;;;;;;;;0.00;0.00;;;;;;;;5055735;28;8874;-81
2022/02/16 14:57:53;;;;;;;;;0.00;0.00;;;;;;;;5060899;28;8856;-78
2022/02/16 15:00:22;;;;;;;;;0.75;0.00;;;;;;;;5055910;28;8860;-78
2022/02/16 15:02:50;;;;;;;;;1.00;0.00;;;;;;;;5061837;28;8890;-80
2022/02/16 15:05:18;;;;;;;;;0.00;0.00;;;;;;;;5039793;28;8862;-78
2022/02/16 15:07:45;;;;;;;;;0.00;0.00;;;;;;;;5059949;28;9656;-78
2022/02/16 15:10:13;;;;;;;;;0.00;0.00;;;;;;;;5061572;28;9674;-79